sensor_id;sensor_type;location;lat;lon;timestamp;P1;durP1;ratioP1;P2;durP2;ratioP2
77822;SDS011;67013;49.730;17.292;2023-04-24T00:01:33;27.90;;;15.30;;
77822;SDS011;67013;49.730;17.292;2023-04-24T00:04:03;23.30;;;13.40;;
77822;SDS011;67013;49.730;17.292;2023-04-24T00:06:33;26.90;;;13.80;;
77822;SDS011;67013;49.730;17.292;2023-04-24T00:09:03;24.40;;;12.70;;
77822;SDS011;67013;49.730;17.292;2023-04-24T00:11:33;26.80;;;12.50;;
77822;SDS011;67013;49.730;17.292;2023-04-24T00:14:02;30.10;;;14.00;;
77822;SDS011;67013;49.730;17.292;2023-04-24T00:16:32;26.70;;;12.40;;
77822;SDS011;67013;49.730;17.292;2023-04-24T00:19:01;24.10;;;13.60;;
77822;SDS011;67013;49.730;17.292;2023-04-24T00:21:32;20.90;;;12.70;;
77822;SDS011;67013;49.730;17.292;2023-04-24T00:24:02;27.80;;;13.50;;
77822;SDS011;67013;49.730;17.292;2023-04-24T00:26:32;23.40;;;12.20;;
77822;SDS011;67013;49.730;17.292;2023-04-24T00:29:02;25.70;;;13.40;;
77822;SDS011;67013;49.730;17.292;2023-04-24T00:31:31;23.60;;;13.10;;
77822;SDS011;67013;49.730;17.292;2023-04-24T00:34:02;20.90;;;12.70;;
77822;SDS011;67013;49.730;17.292;2023-04-24T00:36:32;19.10;;;12.00;;
77822;SDS011;67013;49.730;17.292;2023-04-24T00:39:01;22.30;;;12.40;;
77822;SDS011;67013;49.730;17.292;2023-04-24T00:41:31;21.80;;;12.30;;
77822;SDS011;67013;49.730;17.292;2023-04-24T00:44:00;21.20;;;12.10;;
77822;SDS011;67013;49.730;17.292;2023-04-24T00:46:30;23.90;;;12.80;;
77822;SDS011;67013;49.730;17.292;2023-04-24T00:49:00;21.00;;;12.60;;
77822;SDS011;67013;49.730;17.292;2023-04-24T00:51:32;24.10;;;13.00;;
77822;SDS011;67013;49.730;17.292;2023-04-24T00:54:03;19.00;;;11.80;;
77822;SDS011;67013;49.730;17.292;2023-04-24T00:56:33;24.20;;;13.10;;
77822;SDS011;67013;49.730;17.292;2023-04-24T00:59:03;23.60;;;13.00;;
77822;SDS011;67013;49.730;17.292;2023-04-24T01:01:34;25.70;;;12.40;;
77822;SDS011;67013;49.730;17.292;2023-04-24T01:04:04;21.80;;;12.40;;
77822;SDS011;67013;49.730;17.292;2023-04-24T01:06:34;24.10;;;12.00;;
77822;SDS011;67013;49.730;17.292;2023-04-24T01:09:04;23.40;;;12.60;;
77822;SDS011;67013;49.730;17.292;2023-04-24T01:11:35;19.80;;;11.90;;
77822;SDS011;67013;49.730;17.292;2023-04-24T01:14:05;23.00;;;12.30;;
77822;SDS011;67013;49.730;17.292;2023-04-24T01:16:35;28.80;;;13.10;;
77822;SDS011;67013;49.730;17.292;2023-04-24T01:19:05;28.50;;;12.20;;
77822;SDS011;67013;49.730;17.292;2023-04-24T01:21:37;26.80;;;12.20;;
77822;SDS011;67013;49.730;17.292;2023-04-24T01:24:07;22.60;;;12.00;;
77822;SDS011;67013;49.730;17.292;2023-04-24T01:26:37;22.50;;;12.40;;
77822;SDS011;67013;49.730;17.292;2023-04-24T01:29:07;25.00;;;12.80;;
77822;SDS011;67013;49.730;17.292;2023-04-24T01:31:36;22.80;;;13.40;;
77822;SDS011;67013;49.730;17.292;2023-04-24T01:34:07;23.50;;;12.10;;
77822;SDS011;67013;49.730;17.292;2023-04-24T01:36:36;22.30;;;12.00;;
77822;SDS011;67013;49.730;17.292;2023-04-24T01:39:07;19.60;;;12.30;;
77822;SDS011;67013;49.730;17.292;2023-04-24T01:41:37;21.80;;;11.60;;
77822;SDS011;67013;49.730;17.292;2023-04-24T01:44:06;25.20;;;12.40;;
77822;SDS011;67013;49.730;17.292;2023-04-24T01:46:36;23.70;;;13.70;;
77822;SDS011;67013;49.730;17.292;2023-04-24T01:49:06;25.50;;;12.80;;
77822;SDS011;67013;49.730;17.292;2023-04-24T01:51:36;21.90;;;12.70;;
77822;SDS011;67013;49.730;17.292;2023-04-24T01:54:05;23.80;;;13.10;;
77822;SDS011;67013;49.730;17.292;2023-04-24T01:56:35;25.20;;;13.50;;
77822;SDS011;67013;49.730;17.292;2023-04-24T01:59:08;26.90;;;13.70;;
77822;SDS011;67013;49.730;17.292;2023-04-24T02:01:38;23.30;;;13.20;;
77822;SDS011;67013;49.730;17.292;2023-04-24T02:04:08;23.50;;;14.50;;
77822;SDS011;67013;49.730;17.292;2023-04-24T02:06:37;26.70;;;13.50;;
77822;SDS011;67013;49.730;17.292;2023-04-24T02:09:07;22.30;;;12.50;;
77822;SDS011;67013;49.730;17.292;2023-04-24T02:11:37;21.80;;;13.60;;
77822;SDS011;67013;49.730;17.292;2023-04-24T02:14:06;22.30;;;12.50;;
77822;SDS011;67013;49.730;17.292;2023-04-24T02:16:36;22.70;;;12.70;;
77822;SDS011;67013;49.730;17.292;2023-04-24T02:19:05;23.50;;;13.30;;
77822;SDS011;67013;49.730;17.292;2023-04-24T02:21:35;24.80;;;12.10;;
77822;SDS011;67013;49.730;17.292;2023-04-24T02:24:04;26.20;;;13.00;;
77822;SDS011;67013;49.730;17.292;2023-04-24T02:26:34;24.30;;;14.50;;
77822;SDS011;67013;49.730;17.292;2023-04-24T02:29:03;23.50;;;13.00;;
77822;SDS011;67013;49.730;17.292;2023-04-24T02:31:33;21.90;;;13.90;;
77822;SDS011;67013;49.730;17.292;2023-04-24T02:34:02;22.90;;;13.00;;
77822;SDS011;67013;49.730;17.292;2023-04-24T02:36:32;25.70;;;13.70;;
77822;SDS011;67013;49.730;17.292;2023-04-24T02:39:01;25.40;;;13.30;;
77822;SDS011;67013;49.730;17.292;2023-04-24T02:41:31;26.10;;;13.80;;
77822;SDS011;67013;49.730;17.292;2023-04-24T02:44:01;23.00;;;13.80;;
77822;SDS011;67013;49.730;17.292;2023-04-24T02:46:30;28.40;;;14.60;;
77822;SDS011;67013;49.730;17.292;2023-04-24T02:48:59;25.50;;;13.80;;
77822;SDS011;67013;49.730;17.292;2023-04-24T02:51:29;25.00;;;13.50;;
77822;SDS011;67013;49.730;17.292;2023-04-24T02:53:58;25.70;;;14.90;;
77822;SDS011;67013;49.730;17.292;2023-04-24T02:56:28;27.40;;;13.30;;
77822;SDS011;67013;49.730;17.292;2023-04-24T02:58:57;22.10;;;13.20;;
77822;SDS011;67013;49.730;17.292;2023-04-24T03:01:27;22.70;;;13.10;;
77822;SDS011;67013;49.730;17.292;2023-04-24T03:03:56;24.80;;;14.00;;
77822;SDS011;67013;49.730;17.292;2023-04-24T03:06:26;26.30;;;13.50;;
77822;SDS011;67013;49.730;17.292;2023-04-24T03:08:55;25.20;;;13.40;;
77822;SDS011;67013;49.730;17.292;2023-04-24T03:11:24;24.70;;;13.80;;
77822;SDS011;67013;49.730;17.292;2023-04-24T03:13:54;28.20;;;14.00;;
77822;SDS011;67013;49.730;17.292;2023-04-24T03:16:24;25.40;;;13.70;;
77822;SDS011;67013;49.730;17.292;2023-04-24T03:18:53;24.80;;;13.70;;
77822;SDS011;67013;49.730;17.292;2023-04-24T03:21:22;25.80;;;13.90;;
77822;SDS011;67013;49.730;17.292;2023-04-24T03:23:53;29.60;;;13.90;;
77822;SDS011;67013;49.730;17.292;2023-04-24T03:26:22;25.20;;;13.90;;
77822;SDS011;67013;49.730;17.292;2023-04-24T03:28:52;25.40;;;13.20;;
77822;SDS011;67013;49.730;17.292;2023-04-24T03:31:22;24.90;;;13.70;;
77822;SDS011;67013;49.730;17.292;2023-04-24T03:33:52;26.20;;;15.30;;
77822;SDS011;67013;49.730;17.292;2023-04-24T03:36:21;23.40;;;14.50;;
77822;SDS011;67013;49.730;17.292;2023-04-24T03:38:52;31.00;;;14.90;;
77822;SDS011;67013;49.730;17.292;2023-04-24T03:43:52;23.90;;;13.40;;
77822;SDS011;67013;49.730;17.292;2023-04-24T03:46:21;28.80;;;15.20;;
77822;SDS011;67013;49.730;17.292;2023-04-24T03:48:51;24.60;;;13.60;;
77822;SDS011;67013;49.730;17.292;2023-04-24T03:51:20;24.90;;;14.60;;
77822;SDS011;67013;49.730;17.292;2023-04-24T03:53:52;28.20;;;14.20;;
77822;SDS011;67013;49.730;17.292;2023-04-24T03:56:21;24.00;;;14.40;;
77822;SDS011;67013;49.730;17.292;2023-04-24T03:58:51;27.00;;;14.00;;
77822;SDS011;67013;49.730;17.292;2023-04-24T04:01:20;29.50;;;14.30;;
77822;SDS011;67013;49.730;17.292;2023-04-24T04:03:51;28.90;;;15.40;;
77822;SDS011;67013;49.730;17.292;2023-04-24T04:06:20;28.70;;;14.40;;
77822;SDS011;67013;49.730;17.292;2023-04-24T04:08:49;33.40;;;16.00;;
77822;SDS011;67013;49.730;17.292;2023-04-24T04:11:19;24.10;;;14.10;;
77822;SDS011;67013;49.730;17.292;2023-04-24T04:13:48;28.10;;;15.00;;
77822;SDS011;67013;49.730;17.292;2023-04-24T04:16:18;28.00;;;15.60;;
77822;SDS011;67013;49.730;17.292;2023-04-24T04:18:47;29.00;;;16.50;;
77822;SDS011;67013;49.730;17.292;2023-04-24T04:21:19;29.20;;;16.40;;
77822;SDS011;67013;49.730;17.292;2023-04-24T04:23:49;30.10;;;14.00;;
77822;SDS011;67013;49.730;17.292;2023-04-24T04:26:18;26.40;;;14.60;;
77822;SDS011;67013;49.730;17.292;2023-04-24T04:28:52;25.20;;;13.00;;
77822;SDS011;67013;49.730;17.292;2023-04-24T04:31:21;26.50;;;14.00;;
77822;SDS011;67013;49.730;17.292;2023-04-24T04:33:51;24.60;;;11.80;;
77822;SDS011;67013;49.730;17.292;2023-04-24T04:36:21;28.50;;;14.50;;
77822;SDS011;67013;49.730;17.292;2023-04-24T04:38:51;21.80;;;11.20;;
77822;SDS011;67013;49.730;17.292;2023-04-24T04:41:21;24.20;;;12.90;;
77822;SDS011;67013;49.730;17.292;2023-04-24T04:43:51;25.30;;;14.70;;
77822;SDS011;67013;49.730;17.292;2023-04-24T04:46:21;26.30;;;14.50;;
77822;SDS011;67013;49.730;17.292;2023-04-24T04:48:52;26.80;;;14.70;;
77822;SDS011;67013;49.730;17.292;2023-04-24T04:51:23;29.40;;;15.90;;
77822;SDS011;67013;49.730;17.292;2023-04-24T04:53:52;27.00;;;15.30;;
77822;SDS011;67013;49.730;17.292;2023-04-24T04:56:22;25.60;;;15.30;;
77822;SDS011;67013;49.730;17.292;2023-04-24T04:58:52;30.00;;;17.00;;
77822;SDS011;67013;49.730;17.292;2023-04-24T05:01:21;28.00;;;16.30;;
77822;SDS011;67013;49.730;17.292;2023-04-24T05:03:51;26.90;;;15.10;;
77822;SDS011;67013;49.730;17.292;2023-04-24T05:06:21;28.40;;;15.90;;
77822;SDS011;67013;49.730;17.292;2023-04-24T05:08:50;32.10;;;17.20;;
77822;SDS011;67013;49.730;17.292;2023-04-24T05:11:23;31.50;;;16.40;;
77822;SDS011;67013;49.730;17.292;2023-04-24T05:13:52;27.70;;;15.10;;
77822;SDS011;67013;49.730;17.292;2023-04-24T05:16:22;26.80;;;15.30;;
77822;SDS011;67013;49.730;17.292;2023-04-24T05:18:51;31.90;;;16.30;;
77822;SDS011;67013;49.730;17.292;2023-04-24T05:21:21;25.50;;;14.70;;
77822;SDS011;67013;49.730;17.292;2023-04-24T05:23:51;29.60;;;15.70;;
77822;SDS011;67013;49.730;17.292;2023-04-24T05:26:21;24.40;;;14.80;;
77822;SDS011;67013;49.730;17.292;2023-04-24T05:28:50;29.30;;;15.30;;
77822;SDS011;67013;49.730;17.292;2023-04-24T05:31:20;30.20;;;15.60;;
77822;SDS011;67013;49.730;17.292;2023-04-24T05:33:49;29.20;;;17.30;;
77822;SDS011;67013;49.730;17.292;2023-04-24T05:36:19;33.10;;;16.20;;
77822;SDS011;67013;49.730;17.292;2023-04-24T05:38:48;32.60;;;17.60;;
77822;SDS011;67013;49.730;17.292;2023-04-24T05:41:18;26.50;;;15.00;;
77822;SDS011;67013;49.730;17.292;2023-04-24T05:43:47;30.30;;;16.40;;
77822;SDS011;67013;49.730;17.292;2023-04-24T05:46:17;29.10;;;15.70;;
77822;SDS011;67013;49.730;17.292;2023-04-24T05:48:47;28.30;;;15.40;;
77822;SDS011;67013;49.730;17.292;2023-04-24T05:51:16;26.00;;;16.20;;
77822;SDS011;67013;49.730;17.292;2023-04-24T05:53:46;27.70;;;15.20;;
77822;SDS011;67013;49.730;17.292;2023-04-24T05:56:15;30.20;;;16.70;;
77822;SDS011;67013;49.730;17.292;2023-04-24T05:58:46;31.30;;;18.10;;
77822;SDS011;67013;49.730;17.292;2023-04-24T06:01:15;30.40;;;16.70;;
77822;SDS011;67013;49.730;17.292;2023-04-24T06:03:46;32.70;;;17.60;;
77822;SDS011;67013;49.730;17.292;2023-04-24T06:06:16;29.30;;;16.10;;
77822;SDS011;67013;49.730;17.292;2023-04-24T06:08:45;41.90;;;18.60;;
77822;SDS011;67013;49.730;17.292;2023-04-24T06:11:15;31.30;;;16.00;;
77822;SDS011;67013;49.730;17.292;2023-04-24T06:13:44;36.10;;;16.30;;
77822;SDS011;67013;49.730;17.292;2023-04-24T06:16:14;30.30;;;15.70;;
77822;SDS011;67013;49.730;17.292;2023-04-24T06:18:44;30.60;;;18.00;;
77822;SDS011;67013;49.730;17.292;2023-04-24T06:21:14;43.80;;;21.80;;
77822;SDS011;67013;49.730;17.292;2023-04-24T06:23:44;38.20;;;17.90;;
77822;SDS011;67013;49.730;17.292;2023-04-24T06:26:16;32.80;;;18.40;;
77822;SDS011;67013;49.730;17.292;2023-04-24T06:28:46;19.00;;;10.40;;
77822;SDS011;67013;49.730;17.292;2023-04-24T06:31:16;29.30;;;16.70;;
77822;SDS011;67013;49.730;17.292;2023-04-24T06:33:46;34.30;;;18.30;;
77822;SDS011;67013;49.730;17.292;2023-04-24T06:36:15;32.40;;;17.40;;
77822;SDS011;67013;49.730;17.292;2023-04-24T06:38:45;30.20;;;17.40;;
77822;SDS011;67013;49.730;17.292;2023-04-24T06:41:15;37.10;;;18.80;;
77822;SDS011;67013;49.730;17.292;2023-04-24T06:43:44;31.00;;;16.50;;
77822;SDS011;67013;49.730;17.292;2023-04-24T06:46:14;29.90;;;16.80;;
77822;SDS011;67013;49.730;17.292;2023-04-24T06:48:44;36.00;;;18.80;;
77822;SDS011;67013;49.730;17.292;2023-04-24T06:51:13;34.60;;;20.00;;
77822;SDS011;67013;49.730;17.292;2023-04-24T06:53:44;37.30;;;19.70;;
77822;SDS011;67013;49.730;17.292;2023-04-24T06:56:13;38.40;;;19.20;;
77822;SDS011;67013;49.730;17.292;2023-04-24T06:58:43;42.00;;;19.90;;
77822;SDS011;67013;49.730;17.292;2023-04-24T07:01:12;36.30;;;17.50;;
77822;SDS011;67013;49.730;17.292;2023-04-24T07:03:42;32.20;;;17.30;;
77822;SDS011;67013;49.730;17.292;2023-04-24T07:06:11;36.70;;;20.40;;
77822;SDS011;67013;49.730;17.292;2023-04-24T07:08:42;50.50;;;26.50;;
77822;SDS011;67013;49.730;17.292;2023-04-24T07:11:13;35.80;;;19.10;;
77822;SDS011;67013;49.730;17.292;2023-04-24T07:13:42;29.60;;;14.90;;
77822;SDS011;67013;49.730;17.292;2023-04-24T07:16:12;48.90;;;21.80;;
77822;SDS011;67013;49.730;17.292;2023-04-24T07:18:41;35.10;;;15.70;;
77822;SDS011;67013;49.730;17.292;2023-04-24T07:21:10;35.00;;;18.90;;
77822;SDS011;67013;49.730;17.292;2023-04-24T07:23:40;29.70;;;13.70;;
77822;SDS011;67013;49.730;17.292;2023-04-24T07:26:10;34.60;;;18.30;;
77822;SDS011;67013;49.730;17.292;2023-04-24T07:28:41;35.00;;;16.90;;
77822;SDS011;67013;49.730;17.292;2023-04-24T07:31:10;41.20;;;19.80;;
77822;SDS011;67013;49.730;17.292;2023-04-24T07:33:40;38.90;;;20.90;;
77822;SDS011;67013;49.730;17.292;2023-04-24T07:36:09;69.10;;;27.50;;
77822;SDS011;67013;49.730;17.292;2023-04-24T07:38:43;66.40;;;27.40;;
77822;SDS011;67013;49.730;17.292;2023-04-24T07:41:13;39.20;;;18.50;;
77822;SDS011;67013;49.730;17.292;2023-04-24T07:43:42;38.90;;;21.90;;
77822;SDS011;67013;49.730;17.292;2023-04-24T07:46:12;39.20;;;21.00;;
77822;SDS011;67013;49.730;17.292;2023-04-24T07:48:41;29.90;;;15.60;;
77822;SDS011;67013;49.730;17.292;2023-04-24T07:51:12;41.60;;;20.80;;
77822;SDS011;67013;49.730;17.292;2023-04-24T07:53:42;33.00;;;18.00;;
77822;SDS011;67013;49.730;17.292;2023-04-24T07:56:12;35.40;;;19.50;;
77822;SDS011;67013;49.730;17.292;2023-04-24T07:58:41;44.20;;;23.20;;
77822;SDS011;67013;49.730;17.292;2023-04-24T08:01:11;33.60;;;15.90;;
77822;SDS011;67013;49.730;17.292;2023-04-24T08:03:40;39.40;;;21.60;;
77822;SDS011;67013;49.730;17.292;2023-04-24T08:06:10;30.90;;;16.30;;
77822;SDS011;67013;49.730;17.292;2023-04-24T08:08:39;43.10;;;22.90;;
77822;SDS011;67013;49.730;17.292;2023-04-24T08:11:09;44.40;;;22.60;;
77822;SDS011;67013;49.730;17.292;2023-04-24T08:13:39;43.60;;;23.50;;
77822;SDS011;67013;49.730;17.292;2023-04-24T08:16:08;35.00;;;19.60;;
77822;SDS011;67013;49.730;17.292;2023-04-24T08:18:38;35.90;;;16.70;;
77822;SDS011;67013;49.730;17.292;2023-04-24T08:21:07;30.90;;;17.70;;
77822;SDS011;67013;49.730;17.292;2023-04-24T08:23:39;35.60;;;20.30;;
77822;SDS011;67013;49.730;17.292;2023-04-24T08:26:08;49.90;;;26.30;;
77822;SDS011;67013;49.730;17.292;2023-04-24T08:28:38;63.60;;;32.00;;
77822;SDS011;67013;49.730;17.292;2023-04-24T08:31:07;52.60;;;28.50;;
77822;SDS011;67013;49.730;17.292;2023-04-24T08:33:37;47.90;;;23.80;;
77822;SDS011;67013;49.730;17.292;2023-04-24T08:36:07;44.70;;;22.30;;
77822;SDS011;67013;49.730;17.292;2023-04-24T08:38:37;64.50;;;27.60;;
77822;SDS011;67013;49.730;17.292;2023-04-24T08:41:07;63.10;;;26.30;;
77822;SDS011;67013;49.730;17.292;2023-04-24T08:43:36;47.30;;;22.20;;
77822;SDS011;67013;49.730;17.292;2023-04-24T08:46:08;39.70;;;21.50;;
77822;SDS011;67013;49.730;17.292;2023-04-24T08:48:38;48.60;;;24.20;;
77822;SDS011;67013;49.730;17.292;2023-04-24T08:51:08;45.40;;;22.80;;
77822;SDS011;67013;49.730;17.292;2023-04-24T08:53:38;57.80;;;26.70;;
77822;SDS011;67013;49.730;17.292;2023-04-24T08:56:07;41.90;;;23.80;;
77822;SDS011;67013;49.730;17.292;2023-04-24T08:58:38;49.50;;;24.10;;
77822;SDS011;67013;49.730;17.292;2023-04-24T09:01:08;30.70;;;17.60;;
77822;SDS011;67013;49.730;17.292;2023-04-24T09:03:38;46.20;;;26.30;;
77822;SDS011;67013;49.730;17.292;2023-04-24T09:06:08;52.10;;;28.60;;
77822;SDS011;67013;49.730;17.292;2023-04-24T09:08:38;64.60;;;32.10;;
77822;SDS011;67013;49.730;17.292;2023-04-24T09:11:09;55.40;;;30.50;;
77822;SDS011;67013;49.730;17.292;2023-04-24T09:13:39;62.00;;;29.80;;
77822;SDS011;67013;49.730;17.292;2023-04-24T09:16:10;86.20;;;33.90;;
77822;SDS011;67013;49.730;17.292;2023-04-24T09:18:41;101.80;;;33.50;;
77822;SDS011;67013;49.730;17.292;2023-04-24T09:21:10;109.60;;;34.60;;
77822;SDS011;67013;49.730;17.292;2023-04-24T09:23:40;90.70;;;32.30;;
77822;SDS011;67013;49.730;17.292;2023-04-24T09:26:10;64.20;;;33.20;;
77822;SDS011;67013;49.730;17.292;2023-04-24T09:28:40;58.40;;;31.90;;
77822;SDS011;67013;49.730;17.292;2023-04-24T09:31:11;56.40;;;27.30;;
77822;SDS011;67013;49.730;17.292;2023-04-24T09:33:49;55.00;;;27.80;;
77822;SDS011;67013;49.730;17.292;2023-04-24T09:36:30;59.60;;;30.50;;
77822;SDS011;67013;49.730;17.292;2023-04-24T09:39:01;126.60;;;72.60;;
77822;SDS011;67013;49.730;17.292;2023-04-24T09:41:32;51.00;;;26.10;;
77822;SDS011;67013;49.730;17.292;2023-04-24T09:44:11;57.40;;;30.60;;
77822;SDS011;67013;49.730;17.292;2023-04-24T09:46:42;51.80;;;27.90;;
77822;SDS011;67013;49.730;17.292;2023-04-24T09:49:14;45.20;;;23.60;;
77822;SDS011;67013;49.730;17.292;2023-04-24T09:51:44;48.50;;;24.20;;
77822;SDS011;67013;49.730;17.292;2023-04-24T09:54:17;47.10;;;21.70;;
77822;SDS011;67013;49.730;17.292;2023-04-24T09:56:48;46.60;;;23.00;;
77822;SDS011;67013;49.730;17.292;2023-04-24T09:59:18;43.00;;;24.30;;
77822;SDS011;67013;49.730;17.292;2023-04-24T10:01:48;50.10;;;25.20;;
77822;SDS011;67013;49.730;17.292;2023-04-24T10:04:19;55.50;;;28.00;;
77822;SDS011;67013;49.730;17.292;2023-04-24T10:06:51;61.80;;;30.00;;
77822;SDS011;67013;49.730;17.292;2023-04-24T10:09:23;62.30;;;30.30;;
77822;SDS011;67013;49.730;17.292;2023-04-24T10:11:54;52.80;;;28.00;;
77822;SDS011;67013;49.730;17.292;2023-04-24T10:14:25;65.20;;;35.80;;
77822;SDS011;67013;49.730;17.292;2023-04-24T10:16:54;74.60;;;35.10;;
77822;SDS011;67013;49.730;17.292;2023-04-24T10:19:25;90.00;;;44.10;;
77822;SDS011;67013;49.730;17.292;2023-04-24T10:21:56;74.80;;;40.90;;
77822;SDS011;67013;49.730;17.292;2023-04-24T10:24:27;69.30;;;33.20;;
77822;SDS011;67013;49.730;17.292;2023-04-24T10:26:58;52.40;;;27.80;;
77822;SDS011;67013;49.730;17.292;2023-04-24T10:29:30;50.60;;;27.80;;
77822;SDS011;67013;49.730;17.292;2023-04-24T10:32:03;51.90;;;27.50;;
77822;SDS011;67013;49.730;17.292;2023-04-24T10:34:36;51.10;;;27.90;;
77822;SDS011;67013;49.730;17.292;2023-04-24T10:37:05;54.60;;;27.50;;
77822;SDS011;67013;49.730;17.292;2023-04-24T10:39:35;52.60;;;28.10;;
77822;SDS011;67013;49.730;17.292;2023-04-24T10:42:15;53.00;;;28.60;;
77822;SDS011;67013;49.730;17.292;2023-04-24T10:44:45;52.20;;;25.20;;
77822;SDS011;67013;49.730;17.292;2023-04-24T10:49:44;55.90;;;27.20;;
77822;SDS011;67013;49.730;17.292;2023-04-24T10:52:18;52.60;;;27.60;;
77822;SDS011;67013;49.730;17.292;2023-04-24T10:54:48;55.40;;;28.90;;
77822;SDS011;67013;49.730;17.292;2023-04-24T10:57:27;63.40;;;29.60;;
77822;SDS011;67013;49.730;17.292;2023-04-24T11:00:18;102.50;;;35.30;;
77822;SDS011;67013;49.730;17.292;2023-04-24T11:02:49;218.10;;;60.90;;
77822;SDS011;67013;49.730;17.292;2023-04-24T11:05:20;137.60;;;45.30;;
77822;SDS011;67013;49.730;17.292;2023-04-24T11:10:41;59.50;;;28.90;;
77822;SDS011;67013;49.730;17.292;2023-04-24T11:13:15;64.90;;;29.70;;
77822;SDS011;67013;49.730;17.292;2023-04-24T11:15:49;82.20;;;40.10;;
77822;SDS011;67013;49.730;17.292;2023-04-24T11:18:43;58.10;;;30.80;;
77822;SDS011;67013;49.730;17.292;2023-04-24T11:21:17;67.50;;;36.40;;
77822;SDS011;67013;49.730;17.292;2023-04-24T11:23:47;70.70;;;32.50;;
77822;SDS011;67013;49.730;17.292;2023-04-24T11:26:19;59.00;;;28.70;;
77822;SDS011;67013;49.730;17.292;2023-04-24T11:28:51;65.30;;;29.40;;
77822;SDS011;67013;49.730;17.292;2023-04-24T11:31:36;59.80;;;28.40;;
77822;SDS011;67013;49.730;17.292;2023-04-24T11:34:10;67.30;;;30.00;;
77822;SDS011;67013;49.730;17.292;2023-04-24T11:36:42;60.20;;;27.60;;
77822;SDS011;67013;49.730;17.292;2023-04-24T11:39:12;63.30;;;29.40;;
77822;SDS011;67013;49.730;17.292;2023-04-24T11:41:42;61.50;;;30.30;;
77822;SDS011;67013;49.730;17.292;2023-04-24T11:44:11;59.00;;;28.80;;
77822;SDS011;67013;49.730;17.292;2023-04-24T11:46:42;59.90;;;28.40;;
77822;SDS011;67013;49.730;17.292;2023-04-24T11:49:12;53.60;;;27.50;;
77822;SDS011;67013;49.730;17.292;2023-04-24T11:51:41;55.70;;;29.80;;
77822;SDS011;67013;49.730;17.292;2023-04-24T11:54:10;51.60;;;27.30;;
77822;SDS011;67013;49.730;17.292;2023-04-24T11:56:40;53.50;;;26.80;;
77822;SDS011;67013;49.730;17.292;2023-04-24T11:59:14;54.80;;;28.60;;
77822;SDS011;67013;49.730;17.292;2023-04-24T12:01:44;59.10;;;28.70;;
77822;SDS011;67013;49.730;17.292;2023-04-24T12:04:15;49.70;;;25.80;;
77822;SDS011;67013;49.730;17.292;2023-04-24T12:07:00;53.50;;;26.50;;
77822;SDS011;67013;49.730;17.292;2023-04-24T12:09:41;56.30;;;27.60;;
77822;SDS011;67013;49.730;17.292;2023-04-24T12:12:12;53.30;;;28.30;;
77822;SDS011;67013;49.730;17.292;2023-04-24T12:14:44;58.90;;;30.00;;
77822;SDS011;67013;49.730;17.292;2023-04-24T12:17:17;62.70;;;30.70;;
77822;SDS011;67013;49.730;17.292;2023-04-24T12:19:51;56.50;;;28.10;;
77822;SDS011;67013;49.730;17.292;2023-04-24T12:22:24;60.30;;;30.20;;
77822;SDS011;67013;49.730;17.292;2023-04-24T12:25:01;67.60;;;31.00;;
77822;SDS011;67013;49.730;17.292;2023-04-24T12:27:32;59.50;;;29.80;;
77822;SDS011;67013;49.730;17.292;2023-04-24T12:30:03;63.30;;;29.10;;
77822;SDS011;67013;49.730;17.292;2023-04-24T12:32:33;65.50;;;30.30;;
77822;SDS011;67013;49.730;17.292;2023-04-24T12:35:08;65.00;;;29.20;;
77822;SDS011;67013;49.730;17.292;2023-04-24T12:37:38;54.20;;;28.20;;
77822;SDS011;67013;49.730;17.292;2023-04-24T12:40:10;55.30;;;26.20;;
77822;SDS011;67013;49.730;17.292;2023-04-24T12:42:43;53.70;;;26.30;;
77822;SDS011;67013;49.730;17.292;2023-04-24T12:45:14;52.10;;;28.40;;
77822;SDS011;67013;49.730;17.292;2023-04-24T12:47:44;50.20;;;25.50;;
77822;SDS011;67013;49.730;17.292;2023-04-24T12:50:16;59.00;;;28.80;;
77822;SDS011;67013;49.730;17.292;2023-04-24T12:52:45;57.60;;;27.90;;
77822;SDS011;67013;49.730;17.292;2023-04-24T12:55:15;58.50;;;29.10;;
77822;SDS011;67013;49.730;17.292;2023-04-24T12:57:44;60.70;;;32.30;;
77822;SDS011;67013;49.730;17.292;2023-04-24T13:00:15;57.80;;;30.10;;
77822;SDS011;67013;49.730;17.292;2023-04-24T13:02:45;65.00;;;29.10;;
77822;SDS011;67013;49.730;17.292;2023-04-24T13:05:14;63.70;;;30.50;;
77822;SDS011;67013;49.730;17.292;2023-04-24T13:07:44;61.00;;;30.80;;
77822;SDS011;67013;49.730;17.292;2023-04-24T13:10:14;71.90;;;34.50;;
77822;SDS011;67013;49.730;17.292;2023-04-24T13:12:43;68.80;;;31.90;;
77822;SDS011;67013;49.730;17.292;2023-04-24T13:15:13;68.60;;;33.90;;
77822;SDS011;67013;49.730;17.292;2023-04-24T13:17:42;80.20;;;35.70;;
77822;SDS011;67013;49.730;17.292;2023-04-24T13:20:11;79.60;;;36.40;;
77822;SDS011;67013;49.730;17.292;2023-04-24T13:22:41;84.30;;;40.10;;
77822;SDS011;67013;49.730;17.292;2023-04-24T13:25:10;96.40;;;41.10;;
77822;SDS011;67013;49.730;17.292;2023-04-24T13:27:43;80.80;;;41.30;;
77822;SDS011;67013;49.730;17.292;2023-04-24T13:30:13;77.30;;;35.50;;
77822;SDS011;67013;49.730;17.292;2023-04-24T13:32:42;79.00;;;33.60;;
77822;SDS011;67013;49.730;17.292;2023-04-24T13:35:12;68.70;;;32.60;;
77822;SDS011;67013;49.730;17.292;2023-04-24T13:37:41;81.60;;;35.70;;
77822;SDS011;67013;49.730;17.292;2023-04-24T13:40:11;85.00;;;35.20;;
77822;SDS011;67013;49.730;17.292;2023-04-24T13:42:41;73.10;;;33.40;;
77822;SDS011;67013;49.730;17.292;2023-04-24T13:45:11;74.00;;;34.50;;
77822;SDS011;67013;49.730;17.292;2023-04-24T13:47:41;73.90;;;31.80;;
77822;SDS011;67013;49.730;17.292;2023-04-24T13:50:10;72.20;;;34.80;;
77822;SDS011;67013;49.730;17.292;2023-04-24T13:52:40;78.90;;;35.40;;
77822;SDS011;67013;49.730;17.292;2023-04-24T13:55:09;70.40;;;34.40;;
77822;SDS011;67013;49.730;17.292;2023-04-24T13:57:39;77.70;;;36.20;;
77822;SDS011;67013;49.730;17.292;2023-04-24T14:00:09;70.10;;;33.40;;
77822;SDS011;67013;49.730;17.292;2023-04-24T14:02:40;75.60;;;33.60;;
77822;SDS011;67013;49.730;17.292;2023-04-24T14:05:10;92.60;;;39.40;;
77822;SDS011;67013;49.730;17.292;2023-04-24T14:07:40;81.90;;;38.10;;
77822;SDS011;67013;49.730;17.292;2023-04-24T14:10:10;77.80;;;34.70;;
77822;SDS011;67013;49.730;17.292;2023-04-24T14:12:39;79.70;;;33.70;;
77822;SDS011;67013;49.730;17.292;2023-04-24T14:15:09;64.30;;;29.30;;
77822;SDS011;67013;49.730;17.292;2023-04-24T14:17:40;65.20;;;31.00;;
77822;SDS011;67013;49.730;17.292;2023-04-24T14:20:10;70.20;;;32.60;;
77822;SDS011;67013;49.730;17.292;2023-04-24T14:22:40;69.90;;;31.90;;
77822;SDS011;67013;49.730;17.292;2023-04-24T14:25:10;68.00;;;31.10;;
77822;SDS011;67013;49.730;17.292;2023-04-24T14:27:39;71.70;;;32.70;;
77822;SDS011;67013;49.730;17.292;2023-04-24T14:30:09;81.90;;;35.90;;
77822;SDS011;67013;49.730;17.292;2023-04-24T14:32:40;65.80;;;29.90;;
77822;SDS011;67013;49.730;17.292;2023-04-24T14:35:09;63.30;;;32.10;;